sensor_id;sensor_type;location;lat;lon;timestamp;temperature;humidity
15700;DHT22;7950;42.744;23.174;2023-02-15T00:02:03;1.60;99.90
15700;DHT22;7950;42.744;23.174;2023-02-15T00:04:32;1.60;99.90
15700;DHT22;7950;42.744;23.174;2023-02-15T00:07:15;1.60;99.90
15700;DHT22;7950;42.744;23.174;2023-02-15T00:09:45;1.60;99.90
15700;DHT22;7950;42.744;23.174;2023-02-15T00:12:15;1.50;99.90
15700;DHT22;7950;42.744;23.174;2023-02-15T00:14:45;1.60;99.90
15700;DHT22;7950;42.744;23.174;2023-02-15T00:20:34;1.50;99.90
15700;DHT22;7950;42.744;23.174;2023-02-15T00:23:03;1.50;99.90
15700;DHT22;7950;42.744;23.174;2023-02-15T00:25:31;1.50;99.90
15700;DHT22;7950;42.744;23.174;2023-02-15T00:28:00;1.50;99.90
15700;DHT22;7950;42.744;23.174;2023-02-15T00:30:30;1.60;99.90
15700;DHT22;7950;42.744;23.174;2023-02-15T00:33:25;1.60;99.90
15700;DHT22;7950;42.744;23.174;2023-02-15T00:35:56;1.60;99.90
15700;DHT22;7950;42.744;23.174;2023-02-15T00:38:26;1.60;99.90
15700;DHT22;7950;42.744;23.174;2023-02-15T00:40:55;1.50;99.90
15700;DHT22;7950;42.744;23.174;2023-02-15T00:43:26;1.50;99.90
15700;DHT22;7950;42.744;23.174;2023-02-15T00:45:57;1.50;99.90
15700;DHT22;7950;42.744;23.174;2023-02-15T00:48:26;1.50;99.90
15700;DHT22;7950;42.744;23.174;2023-02-15T00:50:57;1.60;99.90
15700;DHT22;7950;42.744;23.174;2023-02-15T00:53:27;1.60;99.90
15700;DHT22;7950;42.744;23.174;2023-02-15T00:55:56;1.60;99.90
15700;DHT22;7950;42.744;23.174;2023-02-15T00:58:26;1.60;99.90
15700;DHT22;7950;42.744;23.174;2023-02-15T01:00:54;1.50;99.90
15700;DHT22;7950;42.744;23.174;2023-02-15T01:03:24;1.50;99.90
15700;DHT22;7950;42.744;23.174;2023-02-15T01:05:53;1.50;99.90
15700;DHT22;7950;42.744;23.174;2023-02-15T01:08:21;1.50;99.90
15700;DHT22;7950;42.744;23.174;2023-02-15T01:10:49;1.50;99.90
15700;DHT22;7950;42.744;23.174;2023-02-15T01:13:18;1.50;99.90
15700;DHT22;7950;42.744;23.174;2023-02-15T01:15:52;1.50;99.90
15700;DHT22;7950;42.744;23.174;2023-02-15T01:18:23;1.50;99.90
15700;DHT22;7950;42.744;23.174;2023-02-15T01:20:52;1.50;99.90
15700;DHT22;7950;42.744;23.174;2023-02-15T01:23:21;1.50;99.90
15700;DHT22;7950;42.744;23.174;2023-02-15T01:25:49;1.60;99.90
15700;DHT22;7950;42.744;23.174;2023-02-15T01:28:18;1.60;99.90
15700;DHT22;7950;42.744;23.174;2023-02-15T01:30:46;1.50;99.90
15700;DHT22;7950;42.744;23.174;2023-02-15T01:33:15;1.50;99.90
15700;DHT22;7950;42.744;23.174;2023-02-15T01:35:46;1.60;99.90
15700;DHT22;7950;42.744;23.174;2023-02-15T01:38:15;1.50;99.90
15700;DHT22;7950;42.744;23.174;2023-02-15T01:40:44;1.50;99.90
15700;DHT22;7950;42.744;23.174;2023-02-15T01:43:12;1.50;99.90
15700;DHT22;7950;42.744;23.174;2023-02-15T01:45:41;1.50;99.90
15700;DHT22;7950;42.744;23.174;2023-02-15T01:48:19;1.50;99.90
15700;DHT22;7950;42.744;23.174;2023-02-15T01:50:54;1.50;99.90
15700;DHT22;7950;42.744;23.174;2023-02-15T01:53:28;1.50;99.90
15700;DHT22;7950;42.744;23.174;2023-02-15T01:56:02;1.50;99.90
15700;DHT22;7950;42.744;23.174;2023-02-15T01:58:35;1.40;99.90
15700;DHT22;7950;42.744;23.174;2023-02-15T02:01:07;1.40;99.90
15700;DHT22;7950;42.744;23.174;2023-02-15T02:03:43;1.40;99.90
15700;DHT22;7950;42.744;23.174;2023-02-15T02:06:21;1.50;99.90
15700;DHT22;7950;42.744;23.174;2023-02-15T02:08:53;1.40;99.90
15700;DHT22;7950;42.744;23.174;2023-02-15T02:11:23;1.40;99.90
15700;DHT22;7950;42.744;23.174;2023-02-15T02:13:53;1.40;99.90
15700;DHT22;7950;42.744;23.174;2023-02-15T02:16:26;1.40;99.90
15700;DHT22;7950;42.744;23.174;2023-02-15T02:19:18;1.40;99.90
15700;DHT22;7950;42.744;23.174;2023-02-15T02:22:14;1.50;99.90
15700;DHT22;7950;42.744;23.174;2023-02-15T02:25:22;1.50;99.90
15700;DHT22;7950;42.744;23.174;2023-02-15T02:28:34;1.50;99.90
15700;DHT22;7950;42.744;23.174;2023-02-15T02:31:37;1.50;99.90
15700;DHT22;7950;42.744;23.174;2023-02-15T02:34:21;1.50;99.90
15700;DHT22;7950;42.744;23.174;2023-02-15T02:37:03;1.40;99.90
15700;DHT22;7950;42.744;23.174;2023-02-15T02:39:44;1.50;99.90
15700;DHT22;7950;42.744;23.174;2023-02-15T02:42:21;1.40;99.90
15700;DHT22;7950;42.744;23.174;2023-02-15T02:45:01;1.50;99.90
15700;DHT22;7950;42.744;23.174;2023-02-15T02:47:36;1.50;99.90
15700;DHT22;7950;42.744;23.174;2023-02-15T02:50:13;1.40;99.90
15700;DHT22;7950;42.744;23.174;2023-02-15T02:52:45;1.50;99.90
15700;DHT22;7950;42.744;23.174;2023-02-15T02:55:17;1.50;99.90
15700;DHT22;7950;42.744;23.174;2023-02-15T02:57:54;1.50;99.90
15700;DHT22;7950;42.744;23.174;2023-02-15T03:00:27;1.40;99.90
15700;DHT22;7950;42.744;23.174;2023-02-15T03:03:02;1.40;99.90
15700;DHT22;7950;42.744;23.174;2023-02-15T03:05:39;1.40;99.90
15700;DHT22;7950;42.744;23.174;2023-02-15T03:08:12;1.40;99.90
15700;DHT22;7950;42.744;23.174;2023-02-15T03:10:49;1.50;99.90
15700;DHT22;7950;42.744;23.174;2023-02-15T03:13:20;1.40;99.90
15700;DHT22;7950;42.744;23.174;2023-02-15T03:15:52;1.50;99.90
15700;DHT22;7950;42.744;23.174;2023-02-15T03:18:41;1.50;99.90
15700;DHT22;7950;42.744;23.174;2023-02-15T03:21:22;1.60;99.90
15700;DHT22;7950;42.744;23.174;2023-02-15T03:24:00;1.60;99.90
15700;DHT22;7950;42.744;23.174;2023-02-15T03:26:36;1.60;99.90
15700;DHT22;7950;42.744;23.174;2023-02-15T03:29:07;1.60;99.90
15700;DHT22;7950;42.744;23.174;2023-02-15T03:31:41;1.60;99.90
15700;DHT22;7950;42.744;23.174;2023-02-15T03:34:14;1.60;99.90
15700;DHT22;7950;42.744;23.174;2023-02-15T03:36:50;1.60;99.90
15700;DHT22;7950;42.744;23.174;2023-02-15T03:39:29;1.60;99.90
15700;DHT22;7950;42.744;23.174;2023-02-15T03:42:07;1.60;99.90
15700;DHT22;7950;42.744;23.174;2023-02-15T03:44:47;1.70;99.90
15700;DHT22;7950;42.744;23.174;2023-02-15T03:47:22;1.70;99.90
15700;DHT22;7950;42.744;23.174;2023-02-15T03:49:59;1.70;99.90
15700;DHT22;7950;42.744;23.174;2023-02-15T03:52:33;1.70;99.90
15700;DHT22;7950;42.744;23.174;2023-02-15T03:55:02;1.70;99.90
15700;DHT22;7950;42.744;23.174;2023-02-15T03:57:31;1.80;99.90
15700;DHT22;7950;42.744;23.174;2023-02-15T04:00:38;1.90;99.90
15700;DHT22;7950;42.744;23.174;2023-02-15T04:03:35;1.90;99.90
15700;DHT22;7950;42.744;23.174;2023-02-15T04:06:07;1.90;99.90
15700;DHT22;7950;42.744;23.174;2023-02-15T04:08:37;1.90;99.90
15700;DHT22;7950;42.744;23.174;2023-02-15T04:11:23;2.00;99.90
15700;DHT22;7950;42.744;23.174;2023-02-15T04:13:51;2.00;99.90
15700;DHT22;7950;42.744;23.174;2023-02-15T04:16:23;2.00;99.90
15700;DHT22;7950;42.744;23.174;2023-02-15T04:18:51;2.00;99.90
15700;DHT22;7950;42.744;23.174;2023-02-15T04:21:37;2.00;99.90
15700;DHT22;7950;42.744;23.174;2023-02-15T04:24:25;2.00;99.90
15700;DHT22;7950;42.744;23.174;2023-02-15T04:27:10;2.00;99.90
15700;DHT22;7950;42.744;23.174;2023-02-15T04:29:39;2.10;99.90
15700;DHT22;7950;42.744;23.174;2023-02-15T04:32:07;2.10;99.90
15700;DHT22;7950;42.744;23.174;2023-02-15T04:34:36;2.10;99.90
15700;DHT22;7950;42.744;23.174;2023-02-15T04:37:30;2.10;99.90
15700;DHT22;7950;42.744;23.174;2023-02-15T04:40:00;2.10;99.90
15700;DHT22;7950;42.744;23.174;2023-02-15T04:42:29;2.10;99.90
15700;DHT22;7950;42.744;23.174;2023-02-15T04:44:57;2.10;99.90
15700;DHT22;7950;42.744;23.174;2023-02-15T04:47:26;2.10;99.90
15700;DHT22;7950;42.744;23.174;2023-02-15T04:49:54;2.10;99.90
15700;DHT22;7950;42.744;23.174;2023-02-15T04:52:24;2.10;99.90
15700;DHT22;7950;42.744;23.174;2023-02-15T04:54:52;2.10;99.90
15700;DHT22;7950;42.744;23.174;2023-02-15T04:57:22;2.20;99.90
15700;DHT22;7950;42.744;23.174;2023-02-15T04:59:51;2.10;99.90
15700;DHT22;7950;42.744;23.174;2023-02-15T05:02:19;2.10;99.90
15700;DHT22;7950;42.744;23.174;2023-02-15T05:04:48;2.10;99.90
15700;DHT22;7950;42.744;23.174;2023-02-15T05:07:16;2.10;99.90
15700;DHT22;7950;42.744;23.174;2023-02-15T05:09:47;2.10;99.90
15700;DHT22;7950;42.744;23.174;2023-02-15T05:12:15;2.00;99.90
15700;DHT22;7950;42.744;23.174;2023-02-15T05:14:45;2.00;99.90
15700;DHT22;7950;42.744;23.174;2023-02-15T05:17:14;2.10;99.90
15700;DHT22;7950;42.744;23.174;2023-02-15T05:19:42;2.00;99.90
15700;DHT22;7950;42.744;23.174;2023-02-15T05:22:11;2.00;99.90
15700;DHT22;7950;42.744;23.174;2023-02-15T05:24:39;2.00;99.90
15700;DHT22;7950;42.744;23.174;2023-02-15T05:39:04;2.10;99.90
15700;DHT22;7950;42.744;23.174;2023-02-15T05:41:33;2.20;99.90
15700;DHT22;7950;42.744;23.174;2023-02-15T05:44:02;2.20;99.90
15700;DHT22;7950;42.744;23.174;2023-02-15T05:46:31;2.20;99.90
15700;DHT22;7950;42.744;23.174;2023-02-15T05:49:00;2.20;99.90
15700;DHT22;7950;42.744;23.174;2023-02-15T05:51:28;2.20;99.90
15700;DHT22;7950;42.744;23.174;2023-02-15T05:53:57;2.30;99.90
15700;DHT22;7950;42.744;23.174;2023-02-15T05:56:26;2.30;99.90
15700;DHT22;7950;42.744;23.174;2023-02-15T05:58:55;2.20;99.90
15700;DHT22;7950;42.744;23.174;2023-02-15T06:01:23;2.30;99.90
15700;DHT22;7950;42.744;23.174;2023-02-15T06:03:52;2.20;99.90
15700;DHT22;7950;42.744;23.174;2023-02-15T06:06:21;2.20;99.90
15700;DHT22;7950;42.744;23.174;2023-02-15T06:08:49;2.20;99.90
15700;DHT22;7950;42.744;23.174;2023-02-15T06:11:18;2.10;99.90
15700;DHT22;7950;42.744;23.174;2023-02-15T06:13:48;2.10;99.90
15700;DHT22;7950;42.744;23.174;2023-02-15T06:16:16;2.10;99.90
15700;DHT22;7950;42.744;23.174;2023-02-15T06:18:49;2.20;99.90
15700;DHT22;7950;42.744;23.174;2023-02-15T06:21:19;2.10;99.90
15700;DHT22;7950;42.744;23.174;2023-02-15T06:23:48;2.10;99.90
15700;DHT22;7950;42.744;23.174;2023-02-15T06:26:16;2.10;99.90
15700;DHT22;7950;42.744;23.174;2023-02-15T06:28:45;2.10;99.90
15700;DHT22;7950;42.744;23.174;2023-02-15T06:31:15;2.10;99.90
15700;DHT22;7950;42.744;23.174;2023-02-15T06:33:43;2.10;99.90
15700;DHT22;7950;42.744;23.174;2023-02-15T06:36:12;2.10;99.90
15700;DHT22;7950;42.744;23.174;2023-02-15T06:38:40;2.10;99.90
15700;DHT22;7950;42.744;23.174;2023-02-15T06:41:09;2.10;99.90
15700;DHT22;7950;42.744;23.174;2023-02-15T06:43:37;2.10;99.90
15700;DHT22;7950;42.744;23.174;2023-02-15T06:46:07;2.20;99.90
15700;DHT22;7950;42.744;23.174;2023-02-15T06:48:36;2.30;99.90
15700;DHT22;7950;42.744;23.174;2023-02-15T06:51:05;2.40;99.90
15700;DHT22;7950;42.744;23.174;2023-02-15T06:53:33;2.40;99.90
15700;DHT22;7950;42.744;23.174;2023-02-15T06:56:10;2.40;99.90
15700;DHT22;7950;42.744;23.174;2023-02-15T06:58:40;2.40;99.90
15700;DHT22;7950;42.744;23.174;2023-02-15T07:01:09;2.40;99.90
15700;DHT22;7950;42.744;23.174;2023-02-15T07:03:39;2.40;99.90
15700;DHT22;7950;42.744;23.174;2023-02-15T07:06:08;2.50;99.90
15700;DHT22;7950;42.744;23.174;2023-02-15T07:08:40;2.60;99.90
15700;DHT22;7950;42.744;23.174;2023-02-15T07:11:08;2.60;99.90
15700;DHT22;7950;42.744;23.174;2023-02-15T07:13:54;2.60;99.90
15700;DHT22;7950;42.744;23.174;2023-02-15T07:16:23;2.70;99.90
15700;DHT22;7950;42.744;23.174;2023-02-15T07:18:53;2.70;99.90
15700;DHT22;7950;42.744;23.174;2023-02-15T07:21:22;2.80;99.90
15700;DHT22;7950;42.744;23.174;2023-02-15T07:23:50;2.80;99.90
15700;DHT22;7950;42.744;23.174;2023-02-15T07:26:19;2.90;99.90
15700;DHT22;7950;42.744;23.174;2023-02-15T07:28:47;3.00;99.90
15700;DHT22;7950;42.744;23.174;2023-02-15T07:31:16;3.00;99.90
15700;DHT22;7950;42.744;23.174;2023-02-15T07:33:45;3.10;99.90
15700;DHT22;7950;42.744;23.174;2023-02-15T07:36:15;3.20;99.90
15700;DHT22;7950;42.744;23.174;2023-02-15T07:38:43;3.20;99.90
15700;DHT22;7950;42.744;23.174;2023-02-15T07:41:13;3.30;99.90
15700;DHT22;7950;42.744;23.174;2023-02-15T07:43:44;3.30;99.90
15700;DHT22;7950;42.744;23.174;2023-02-15T07:46:15;3.30;99.90
15700;DHT22;7950;42.744;23.174;2023-02-15T07:48:44;3.40;99.90
15700;DHT22;7950;42.744;23.174;2023-02-15T07:51:15;3.40;99.90
15700;DHT22;7950;42.744;23.174;2023-02-15T07:53:44;3.50;99.90
15700;DHT22;7950;42.744;23.174;2023-02-15T07:56:15;3.60;99.90
15700;DHT22;7950;42.744;23.174;2023-02-15T07:58:43;3.70;99.90
15700;DHT22;7950;42.744;23.174;2023-02-15T08:01:24;3.70;99.90
15700;DHT22;7950;42.744;23.174;2023-02-15T08:03:55;3.80;99.90
15700;DHT22;7950;42.744;23.174;2023-02-15T08:06:30;3.80;99.90
15700;DHT22;7950;42.744;23.174;2023-02-15T08:09:02;3.90;99.90
15700;DHT22;7950;42.744;23.174;2023-02-15T08:11:33;3.90;99.90
15700;DHT22;7950;42.744;23.174;2023-02-15T08:14:29;3.90;99.90
15700;DHT22;7950;42.744;23.174;2023-02-15T08:20:17;3.90;99.90
15700;DHT22;7950;42.744;23.174;2023-02-15T08:22:47;4.00;99.90
15700;DHT22;7950;42.744;23.174;2023-02-15T08:25:20;4.00;99.90
15700;DHT22;7950;42.744;23.174;2023-02-15T08:27:49;4.10;99.90
15700;DHT22;7950;42.744;23.174;2023-02-15T08:30:18;4.30;99.90
15700;DHT22;7950;42.744;23.174;2023-02-15T08:32:46;4.40;99.90
15700;DHT22;7950;42.744;23.174;2023-02-15T08:35:15;4.50;99.90
15700;DHT22;7950;42.744;23.174;2023-02-15T08:37:44;4.50;99.90
15700;DHT22;7950;42.744;23.174;2023-02-15T08:40:13;4.50;99.90
15700;DHT22;7950;42.744;23.174;2023-02-15T08:42:43;4.60;99.90
15700;DHT22;7950;42.744;23.174;2023-02-15T08:45:12;4.70;99.90
15700;DHT22;7950;42.744;23.174;2023-02-15T08:47:40;5.00;99.90
15700;DHT22;7950;42.744;23.174;2023-02-15T08:50:09;5.20;99.90
15700;DHT22;7950;42.744;23.174;2023-02-15T08:52:38;5.30;99.90
15700;DHT22;7950;42.744;23.174;2023-02-15T08:55:06;5.40;99.90
15700;DHT22;7950;42.744;23.174;2023-02-15T08:57:36;5.30;99.90
15700;DHT22;7950;42.744;23.174;2023-02-15T09:00:06;5.40;99.90
15700;DHT22;7950;42.744;23.174;2023-02-15T09:02:35;5.50;99.90
15700;DHT22;7950;42.744;23.174;2023-02-15T09:05:05;5.50;99.90
15700;DHT22;7950;42.744;23.174;2023-02-15T09:07:34;5.50;99.90
15700;DHT22;7950;42.744;23.174;2023-02-15T09:10:03;5.40;99.90
15700;DHT22;7950;42.744;23.174;2023-02-15T09:12:32;5.40;99.90
15700;DHT22;7950;42.744;23.174;2023-02-15T09:15:02;5.40;99.90
15700;DHT22;7950;42.744;23.174;2023-02-15T09:17:31;5.40;99.90
15700;DHT22;7950;42.744;23.174;2023-02-15T09:19:59;5.40;99.90
15700;DHT22;7950;42.744;23.174;2023-02-15T09:22:31;5.50;99.90
15700;DHT22;7950;42.744;23.174;2023-02-15T09:25:00;5.40;99.90
15700;DHT22;7950;42.744;23.174;2023-02-15T09:27:29;5.30;99.90
15700;DHT22;7950;42.744;23.174;2023-02-15T09:29:58;5.30;99.90
15700;DHT22;7950;42.744;23.174;2023-02-15T09:32:28;5.30;99.90
15700;DHT22;7950;42.744;23.174;2023-02-15T09:34:56;5.30;99.90
15700;DHT22;7950;42.744;23.174;2023-02-15T09:37:24;5.30;99.90
15700;DHT22;7950;42.744;23.174;2023-02-15T09:39:53;5.30;99.90
15700;DHT22;7950;42.744;23.174;2023-02-15T09:46:11;5.30;99.90
15700;DHT22;7950;42.744;23.174;2023-02-15T09:48:53;5.30;99.90
15700;DHT22;7950;42.744;23.174;2023-02-15T09:51:48;5.30;99.90
15700;DHT22;7950;42.744;23.174;2023-02-15T09:54:37;5.30;99.90
15700;DHT22;7950;42.744;23.174;2023-02-15T09:57:19;5.50;99.90
15700;DHT22;7950;42.744;23.174;2023-02-15T10:00:05;5.50;99.90
15700;DHT22;7950;42.744;23.174;2023-02-15T10:02:49;5.50;99.90
15700;DHT22;7950;42.744;23.174;2023-02-15T10:05:41;5.60;99.90
15700;DHT22;7950;42.744;23.174;2023-02-15T10:08:50;6.00;99.90
15700;DHT22;7950;42.744;23.174;2023-02-15T10:11:47;6.20;99.90
15700;DHT22;7950;42.744;23.174;2023-02-15T10:14:45;6.20;99.90
15700;DHT22;7950;42.744;23.174;2023-02-15T10:17:33;6.20;99.90
15700;DHT22;7950;42.744;23.174;2023-02-15T10:20:20;6.10;99.90
15700;DHT22;7950;42.744;23.174;2023-02-15T10:23:14;6.00;99.90
15700;DHT22;7950;42.744;23.174;2023-02-15T10:26:04;5.80;99.90
15700;DHT22;7950;42.744;23.174;2023-02-15T10:28:45;5.80;99.90
15700;DHT22;7950;42.744;23.174;2023-02-15T10:31:23;5.90;99.90
15700;DHT22;7950;42.744;23.174;2023-02-15T10:34:15;6.00;99.90
15700;DHT22;7950;42.744;23.174;2023-02-15T10:36:58;6.00;99.90
15700;DHT22;7950;42.744;23.174;2023-02-15T10:39:46;6.00;99.90
15700;DHT22;7950;42.744;23.174;2023-02-15T10:42:30;5.80;99.90
15700;DHT22;7950;42.744;23.174;2023-02-15T10:45:16;5.70;99.90
15700;DHT22;7950;42.744;23.174;2023-02-15T10:51:00;6.00;99.90
15700;DHT22;7950;42.744;23.174;2023-02-15T10:53:50;6.00;99.90
15700;DHT22;7950;42.744;23.174;2023-02-15T10:56:38;6.10;99.90
15700;DHT22;7950;42.744;23.174;2023-02-15T10:59:37;6.10;99.90
15700;DHT22;7950;42.744;23.174;2023-02-15T11:02:23;6.10;99.90
15700;DHT22;7950;42.744;23.174;2023-02-15T11:05:18;6.30;99.90
15700;DHT22;7950;42.744;23.174;2023-02-15T11:07:57;6.40;99.90
15700;DHT22;7950;42.744;23.174;2023-02-15T11:10:31;6.40;99.90
15700;DHT22;7950;42.744;23.174;2023-02-15T11:13:09;6.40;99.90
15700;DHT22;7950;42.744;23.174;2023-02-15T11:15:42;6.40;99.90
15700;DHT22;7950;42.744;23.174;2023-02-15T11:18:20;6.50;99.90
15700;DHT22;7950;42.744;23.174;2023-02-15T11:21:02;6.50;99.90
15700;DHT22;7950;42.744;23.174;2023-02-15T11:23:41;6.50;99.90
15700;DHT22;7950;42.744;23.174;2023-02-15T11:26:16;6.50;99.90
15700;DHT22;7950;42.744;23.174;2023-02-15T11:28:52;6.60;99.90
15700;DHT22;7950;42.744;23.174;2023-02-15T11:31:26;6.60;99.90
15700;DHT22;7950;42.744;23.174;2023-02-15T11:34:06;6.70;99.90
15700;DHT22;7950;42.744;23.174;2023-02-15T11:36:43;6.90;99.90
15700;DHT22;7950;42.744;23.174;2023-02-15T11:39:17;6.90;99.90
15700;DHT22;7950;42.744;23.174;2023-02-15T11:41:49;6.90;99.90
15700;DHT22;7950;42.744;23.174;2023-02-15T11:44:26;6.90;99.90
15700;DHT22;7950;42.744;23.174;2023-02-15T11:47:00;7.00;99.90
15700;DHT22;7950;42.744;23.174;2023-02-15T11:49:32;7.10;99.90
15700;DHT22;7950;42.744;23.174;2023-02-15T11:52:06;7.20;99.90
15700;DHT22;7950;42.744;23.174;2023-02-15T11:54:41;7.30;99.90
15700;DHT22;7950;42.744;23.174;2023-02-15T11:57:15;7.40;99.90
15700;DHT22;7950;42.744;23.174;2023-02-15T11:59:53;7.50;99.90
15700;DHT22;7950;42.744;23.174;2023-02-15T12:02:36;7.60;99.90
15700;DHT22;7950;42.744;23.174;2023-02-15T12:05:10;7.60;99.90
15700;DHT22;7950;42.744;23.174;2023-02-15T12:07:46;7.60;99.90
15700;DHT22;7950;42.744;23.174;2023-02-15T12:10:22;7.50;99.90
15700;DHT22;7950;42.744;23.174;2023-02-15T12:13:09;7.60;99.90
15700;DHT22;7950;42.744;23.174;2023-02-15T12:15:43;7.60;99.90
15700;DHT22;7950;42.744;23.174;2023-02-15T12:18:19;7.50;99.90
15700;DHT22;7950;42.744;23.174;2023-02-15T12:21:28;7.50;99.90
15700;DHT22;7950;42.744;23.174;2023-02-15T12:24:03;7.50;99.90
15700;DHT22;7950;42.744;23.174;2023-02-15T12:26:44;7.70;99.90
15700;DHT22;7950;42.744;23.174;2023-02-15T12:29:29;7.80;99.90
15700;DHT22;7950;42.744;23.174;2023-02-15T12:32:26;7.90;99.90
15700;DHT22;7950;42.744;23.174;2023-02-15T12:35:01;7.80;99.90
15700;DHT22;7950;42.744;23.174;2023-02-15T12:37:36;7.80;99.90
15700;DHT22;7950;42.744;23.174;2023-02-15T12:40:19;7.70;99.90
15700;DHT22;7950;42.744;23.174;2023-02-15T12:42:49;7.80;99.90
15700;DHT22;7950;42.744;23.174;2023-02-15T12:45:24;7.90;99.90
15700;DHT22;7950;42.744;23.174;2023-02-15T12:48:20;8.00;99.90
15700;DHT22;7950;42.744;23.174;2023-02-15T12:50:50;7.90;99.90
15700;DHT22;7950;42.744;23.174;2023-02-15T12:53:30;8.00;99.90
15700;DHT22;7950;42.744;23.174;2023-02-15T12:56:02;8.00;99.90
15700;DHT22;7950;42.744;23.174;2023-02-15T12:58:33;8.00;99.90
15700;DHT22;7950;42.744;23.174;2023-02-15T13:01:11;8.00;99.90
15700;DHT22;7950;42.744;23.174;2023-02-15T13:04:14;8.00;99.90
15700;DHT22;7950;42.744;23.174;2023-02-15T13:07:07;8.10;99.90
15700;DHT22;7950;42.744;23.174;2023-02-15T13:09:39;8.00;99.90
15700;DHT22;7950;42.744;23.174;2023-02-15T13:12:17;8.00;99.90
15700;DHT22;7950;42.744;23.174;2023-02-15T13:14:50;7.90;99.90
15700;DHT22;7950;42.744;23.174;2023-02-15T13:17:30;8.00;99.90
15700;DHT22;7950;42.744;23.174;2023-02-15T13:20:05;8.00;99.90
15700;DHT22;7950;42.744;23.174;2023-02-15T13:22:47;7.90;99.90
15700;DHT22;7950;42.744;23.174;2023-02-15T13:25:20;7.90;99.90
15700;DHT22;7950;42.744;23.174;2023-02-15T13:27:54;7.90;99.90
15700;DHT22;7950;42.744;23.174;2023-02-15T13:30:26;7.90;99.90
15700;DHT22;7950;42.744;23.174;2023-02-15T13:33:03;7.90;99.90
15700;DHT22;7950;42.744;23.174;2023-02-15T13:35:39;7.80;99.90
15700;DHT22;7950;42.744;23.174;2023-02-15T13:38:29;7.80;99.90
15700;DHT22;7950;42.744;23.174;2023-02-15T13:41:13;7.70;99.90
15700;DHT22;7950;42.744;23.174;2023-02-15T13:43:52;7.70;99.90
15700;DHT22;7950;42.744;23.174;2023-02-15T13:46:50;7.70;99.90
15700;DHT22;7950;42.744;23.174;2023-02-15T13:49:39;7.70;99.90
15700;DHT22;7950;42.744;23.174;2023-02-15T13:52:21;7.70;99.90
15700;DHT22;7950;42.744;23.174;2023-02-15T13:55:10;7.60;99.90
15700;DHT22;7950;42.744;23.174;2023-02-15T14:01:11;7.30;99.90
15700;DHT22;7950;42.744;23.174;2023-02-15T14:06:53;7.30;99.90
15700;DHT22;7950;42.744;23.174;2023-02-15T14:09:48;7.20;99.90
15700;DHT22;7950;42.744;23.174;2023-02-15T14:12:36;7.20;99.90
15700;DHT22;7950;42.744;23.174;2023-02-15T14:15:28;7.10;99.90
15700;DHT22;7950;42.744;23.174;2023-02-15T14:18:12;7.00;99.90
15700;DHT22;7950;42.744;23.174;2023-02-15T14:20:58;7.00;99.90
15700;DHT22;7950;42.744;23.174;2023-02-15T14:23:45;6.80;99.90
15700;DHT22;7950;42.744;23.174;2023-02-15T14:26:51;6.70;99.90
15700;DHT22;7950;42.744;23.174;2023-02-15T14:29:38;6.70;99.90
15700;DHT22;7950;42.744;23.174;2023-02-15T14:32:39;6.60;99.90
15700;DHT22;7950;42.744;23.174;2023-02-15T14:35:14;6.60;99.90
15700;DHT22;7950;42.744;23.174;2023-02-15T14:37:49;6.60;99.90
15700;DHT22;7950;42.744;23.174;2023-02-15T14:40:47;6.50;99.90
15700;DHT22;7950;42.744;23.174;2023-02-15T14:43:45;6.40;99.90
15700;DHT22;7950;42.744;23.174;2023-02-15T14:46:25;6.40;99.90
15700;DHT22;7950;42.744;23.174;2023-02-15T14:49:05;6.50;99.90
15700;DHT22;7950;42.744;23.174;2023-02-15T14:51:55;6.40;99.90
15700;DHT22;7950;42.744;23.174;2023-02-15T14:54:54;6.30;99.90
15700;DHT22;7950;42.744;23.174;2023-02-15T14:57:31;6.20;99.90
15700;DHT22;7950;42.744;23.174;2023-02-15T15:00:33;6.20;99.90
15700;DHT22;7950;42.744;23.174;2023-02-15T15:03:24;6.10;99.90
15700;DHT22;7950;42.744;23.174;2023-02-15T15:05:55;6.00;99.90
15700;DHT22;7950;42.744;23.174;2023-02-15T15:08:33;5.90;99.90
15700;DHT22;7950;42.744;23.174;2023-02-15T15:11:45;5.80;99.90
15700;DHT22;7950;42.744;23.174;2023-02-15T15:14:39;5.70;99.90
15700;DHT22;7950;42.744;23.174;2023-02-15T15:17:13;5.70;99.90
15700;DHT22;7950;42.744;23.174;2023-02-15T15:20:12;5.60;99.90
15700;DHT22;7950;42.744;23.174;2023-02-15T15:22:43;5.40;99.90
15700;DHT22;7950;42.744;23.174;2023-02-15T15:25:42;5.30;99.90
15700;DHT22;7950;42.744;23.174;2023-02-15T15:35:04;5.00;99.90
15700;DHT22;7950;42.744;23.174;2023-02-15T15:38:38;4.90;99.90
15700;DHT22;7950;42.744;23.174;2023-02-15T15:41:19;4.80;99.90
15700;DHT22;7950;42.744;23.174;2023-02-15T15:44:28;4.70;99.90
15700;DHT22;7950;42.744;23.174;2023-02-15T15:47:45;4.60;99.90
15700;DHT22;7950;42.744;23.174;2023-02-15T15:50:33;4.50;99.90
15700;DHT22;7950;42.744;23.174;2023-02-15T15:53:03;4.40;99.90
15700;DHT22;7950;42.744;23.174;2023-02-15T15:55:34;4.40;99.90
15700;DHT22;7950;42.744;23.174;2023-02-15T15:58:05;4.30;99.90
15700;DHT22;7950;42.744;23.174;2023-02-15T16:00:38;4.20;99.90
15700;DHT22;7950;42.744;23.174;2023-02-15T16:03:15;4.10;99.90
15700;DHT22;7950;42.744;23.174;2023-02-15T16:05:48;4.00;99.90
15700;DHT22;7950;42.744;23.174;2023-02-15T16:08:30;4.00;99.90
15700;DHT22;7950;42.744;23.174;2023-02-15T16:11:01;3.90;99.90
15700;DHT22;7950;42.744;23.174;2023-02-15T16:13:40;3.80;99.90
15700;DHT22;7950;42.744;23.174;2023-02-15T16:16:11;3.80;99.90
15700;DHT22;7950;42.744;23.174;2023-02-15T16:18:42;3.80;99.90
15700;DHT22;7950;42.744;23.174;2023-02-15T16:21:17;3.70;99.90
15700;DHT22;7950;42.744;23.174;2023-02-15T16:23:59;3.70;99.90
15700;DHT22;7950;42.744;23.174;2023-02-15T16:26:57;3.60;99.90
15700;DHT22;7950;42.744;23.174;2023-02-15T16:29:39;3.40;99.90
15700;DHT22;7950;42.744;23.174;2023-02-15T16:32:17;3.30;99.90
15700;DHT22;7950;42.744;23.174;2023-02-15T16:34:57;3.20;99.90
15700;DHT22;7950;42.744;23.174;2023-02-15T16:37:28;3.10;99.90
15700;DHT22;7950;42.744;23.174;2023-02-15T16:40:00;3.00;99.90
15700;DHT22;7950;42.744;23.174;2023-02-15T16:42:29;2.90;99.90
15700;DHT22;7950;42.744;23.174;2023-02-15T16:45:02;2.80;99.90
15700;DHT22;7950;42.744;23.174;2023-02-15T16:47:40;2.80;99.90
15700;DHT22;7950;42.744;23.174;2023-02-15T16:50:19;2.70;99.90
15700;DHT22;7950;42.744;23.174;2023-02-15T16:52:51;2.60;99.90
15700;DHT22;7950;42.744;23.174;2023-02-15T16:55:23;2.60;99.90
15700;DHT22;7950;42.744;23.174;2023-02-15T16:57:55;2.50;99.90
15700;DHT22;7950;42.744;23.174;2023-02-15T17:00:31;2.40;99.90
15700;DHT22;7950;42.744;23.174;2023-02-15T17:03:04;2.30;99.90
15700;DHT22;7950;42.744;23.174;2023-02-15T17:05:44;2.30;99.90
15700;DHT22;7950;42.744;23.174;2023-02-15T17:08:16;2.20;99.90
15700;DHT22;7950;42.744;23.174;2023-02-15T17:11:13;2.10;99.90
15700;DHT22;7950;42.744;23.174;2023-02-15T17:14:19;2.00;99.90
15700;DHT22;7950;42.744;23.174;2023-02-15T17:16:50;1.90;99.90
15700;DHT22;7950;42.744;23.174;2023-02-15T17:19:23;1.80;99.90
15700;DHT22;7950;42.744;23.174;2023-02-15T17:21:56;1.80;99.90
15700;DHT22;7950;42.744;23.174;2023-02-15T17:24:37;1.70;99.90